createdAt,value
2023-01-20T00:02:34.723Z,1.90
2023-01-20T00:05:07.372Z,1.90
2023-01-20T00:07:40.073Z,1.90
2023-01-20T00:12:45.138Z,1.90
2023-01-20T00:15:17.017Z,1.80
2023-01-20T00:17:49.718Z,1.70
2023-01-20T00:20:21.657Z,1.80
2023-01-20T00:22:54.367Z,1.70
2023-01-20T00:25:26.340Z,1.80
2023-01-20T00:28:01.775Z,1.80
2023-01-20T00:30:34.178Z,1.90
2023-01-20T00:33:09.748Z,1.80
2023-01-20T00:35:42.918Z,1.70
2023-01-20T00:38:16.029Z,1.80
2023-01-20T00:40:55.076Z,1.80
2023-01-20T00:43:27.914Z,1.80
2023-01-20T00:46:00.297Z,1.60
2023-01-20T00:48:33.675Z,1.50
2023-01-20T00:51:07.412Z,1.60
2023-01-20T00:53:40.245Z,1.60
2023-01-20T00:56:12.931Z,1.50
2023-01-20T00:58:45.244Z,1.40
2023-01-20T01:03:54.426Z,1.30
2023-01-20T01:08:59.161Z,1.30
2023-01-20T01:14:03.855Z,1.50
2023-01-20T01:16:37.071Z,1.50
2023-01-20T01:19:09.212Z,1.60
2023-01-20T01:21:41.901Z,1.60
2023-01-20T01:24:13.798Z,1.60
2023-01-20T01:26:47.065Z,1.50
2023-01-20T01:29:18.950Z,1.60
2023-01-20T01:31:51.752Z,1.50
2023-01-20T01:34:23.753Z,1.50
2023-01-20T01:36:56.981Z,1.50
2023-01-20T01:39:28.895Z,1.60
2023-01-20T01:42:01.623Z,1.60
2023-01-20T01:44:38.751Z,1.50
2023-01-20T01:47:11.528Z,1.60
2023-01-20T01:49:43.510Z,1.50
2023-01-20T01:52:16.642Z,1.60
2023-01-20T01:54:49.205Z,1.60
2023-01-20T01:57:22.918Z,1.60
2023-01-20T01:59:55.232Z,1.70
2023-01-20T02:02:27.208Z,1.70
2023-01-20T02:04:59.986Z,1.70
2023-01-20T02:07:33.507Z,1.60
2023-01-20T02:10:06.785Z,1.60
2023-01-20T02:12:39.923Z,1.60
2023-01-20T02:15:13.821Z,1.50
2023-01-20T02:18:24.719Z,1.50
2023-01-20T02:21:39.575Z,1.40
2023-01-20T02:24:50.725Z,1.40
2023-01-20T02:27:46.968Z,1.50
2023-01-20T02:30:41.905Z,1.60
2023-01-20T02:33:32.579Z,1.50
2023-01-20T02:36:12.811Z,1.50
2023-01-20T02:39:03.374Z,1.50
2023-01-20T02:41:53.222Z,1.50
2023-01-20T02:44:39.183Z,1.60
2023-01-20T02:47:36.069Z,1.60
2023-01-20T02:50:33.354Z,1.60
2023-01-20T02:53:07.767Z,1.60
2023-01-20T02:55:47.380Z,1.50
2023-01-20T02:59:07.669Z,1.60
2023-01-20T03:02:05.215Z,1.50
2023-01-20T03:04:46.516Z,1.40
2023-01-20T03:07:22.618Z,1.30
2023-01-20T03:09:58.827Z,1.30
2023-01-20T03:12:47.318Z,1.40
2023-01-20T03:15:25.543Z,1.40
2023-01-20T03:17:58.687Z,1.40
2023-01-20T03:20:31.099Z,1.50
2023-01-20T03:23:04.663Z,1.40
2023-01-20T03:25:37.974Z,1.50
2023-01-20T03:28:10.667Z,1.50
2023-01-20T03:30:42.653Z,1.40
2023-01-20T03:33:16.669Z,1.30
2023-01-20T03:35:49.588Z,1.20
2023-01-20T03:38:22.291Z,1.30
2023-01-20T03:41:04.559Z,1.20
2023-01-20T03:44:07.000Z,1.20
2023-01-20T03:46:51.091Z,1.30
2023-01-20T03:49:46.684Z,1.30
2023-01-20T03:52:47.508Z,1.40
2023-01-20T03:55:23.521Z,1.40
2023-01-20T03:58:06.217Z,1.40
2023-01-20T04:00:44.157Z,1.40
2023-01-20T04:03:23.434Z,1.20
2023-01-20T04:05:58.328Z,1.20
2023-01-20T04:08:45.449Z,1.20
2023-01-20T04:11:17.908Z,1.10
2023-01-20T04:13:50.842Z,1.10
2023-01-20T04:16:25.730Z,1.10
2023-01-20T04:18:57.665Z,1.20
2023-01-20T04:21:34.901Z,1.30
2023-01-20T04:24:25.593Z,3.30
2023-01-20T04:26:57.476Z,2.50
2023-01-20T04:29:30.183Z,2.20
2023-01-20T04:32:03.319Z,2.20
2023-01-20T04:34:36.055Z,1.90
2023-01-20T04:37:07.921Z,1.50
2023-01-20T04:39:40.242Z,1.50
2023-01-20T04:42:12.733Z,1.30
2023-01-20T04:44:45.154Z,1.30
2023-01-20T04:47:17.884Z,1.20
2023-01-20T04:49:50.097Z,1.20
2023-01-20T04:52:22.773Z,1.20
2023-01-20T04:54:54.640Z,1.20
2023-01-20T04:57:29.358Z,1.10
2023-01-20T05:00:01.370Z,1.10
2023-01-20T05:02:35.818Z,1.10
2023-01-20T05:05:08.740Z,1.00
2023-01-20T05:07:40.580Z,1.10
2023-01-20T05:10:13.433Z,1.10
2023-01-20T05:12:46.170Z,1.10
2023-01-20T05:17:51.173Z,1.20
2023-01-20T05:20:23.143Z,1.10
2023-01-20T05:22:56.118Z,1.00
2023-01-20T05:25:27.978Z,1.00
2023-01-20T05:28:01.099Z,1.00
2023-01-20T05:30:33.152Z,1.00
2023-01-20T05:33:05.853Z,0.90
2023-01-20T05:35:39.215Z,0.90
2023-01-20T05:38:11.055Z,0.80
2023-01-20T05:43:16.141Z,0.70
2023-01-20T05:45:48.866Z,0.80
2023-01-20T05:50:54.102Z,0.70
2023-01-20T05:53:26.872Z,0.70
2023-01-20T05:56:04.091Z,0.70
2023-01-20T05:58:36.877Z,0.70
2023-01-20T06:01:12.754Z,0.60
2023-01-20T06:03:45.069Z,0.60
2023-01-20T06:06:18.358Z,0.50
2023-01-20T06:08:53.256Z,0.50
2023-01-20T06:13:58.468Z,0.40
2023-01-20T06:16:30.325Z,0.30
2023-01-20T06:19:03.059Z,0.20
2023-01-20T06:21:34.900Z,0.10
2023-01-20T06:26:40.758Z,0.00
2023-01-20T06:29:13.484Z,0.00
2023-01-20T06:31:46.054Z,0.00
2023-01-20T06:34:17.923Z,0.00
2023-01-20T06:36:50.658Z,-0.10
2023-01-20T06:39:22.735Z,0.10
2023-01-20T06:41:59.378Z,0.10
2023-01-20T06:47:04.689Z,0.20
2023-01-20T06:52:10.260Z,0.20
2023-01-20T06:54:42.132Z,0.20
2023-01-20T06:57:14.867Z,0.20
2023-01-20T06:59:46.811Z,0.20
2023-01-20T07:02:19.678Z,0.20
2023-01-20T07:04:54.798Z,0.10
2023-01-20T07:07:27.407Z,0.00
2023-01-20T07:09:59.705Z,0.00
2023-01-20T07:12:31.526Z,0.10
2023-01-20T07:15:04.755Z,0.20
2023-01-20T07:17:36.626Z,0.10
2023-01-20T07:20:10.546Z,1.00
2023-01-20T07:22:42.781Z,0.00
2023-01-20T07:25:16.114Z,-0.10
2023-01-20T07:27:48.660Z,0.00
2023-01-20T07:30:21.362Z,-1.20
2023-01-20T07:32:53.891Z,0.10
2023-01-20T07:35:26.658Z,0.10
2023-01-20T07:40:31.861Z,0.20
2023-01-20T07:43:04.334Z,0.30
2023-01-20T07:48:09.943Z,0.90
2023-01-20T07:50:42.708Z,0.30
2023-01-20T07:53:14.550Z,0.30
2023-01-20T07:55:47.296Z,0.30
2023-01-20T07:58:19.158Z,0.50
2023-01-20T08:00:51.954Z,0.40
2023-01-20T08:03:27.422Z,0.30
2023-01-20T08:06:03.668Z,0.30
2023-01-20T08:08:36.735Z,0.50
2023-01-20T08:11:11.343Z,0.60
2023-01-20T08:13:47.668Z,0.50
2023-01-20T08:18:55.224Z,0.50
2023-01-20T08:21:31.055Z,0.50
2023-01-20T08:24:07.069Z,0.60
2023-01-20T08:29:12.189Z,0.80
2023-01-20T08:31:44.187Z,0.60
2023-01-20T08:34:19.090Z,0.70
2023-01-20T08:39:26.431Z,0.60
2023-01-20T08:41:58.275Z,0.80
2023-01-20T08:47:03.602Z,1.00
2023-01-20T08:49:36.365Z,0.80
2023-01-20T08:52:09.067Z,0.80
2023-01-20T08:57:36.448Z,1.10
2023-01-20T09:02:45.784Z,1.20
2023-01-20T09:05:18.284Z,1.20
2023-01-20T09:07:50.149Z,1.00
2023-01-20T09:10:22.870Z,1.20
2023-01-20T09:12:55.325Z,0.80
2023-01-20T09:18:00.367Z,0.80
2023-01-20T09:20:33.062Z,0.80
2023-01-20T09:23:05.784Z,-0.10
2023-01-20T09:25:37.813Z,0.90
2023-01-20T09:28:10.550Z,1.00
2023-01-20T09:30:43.374Z,1.00
2023-01-20T09:33:16.204Z,1.00
2023-01-20T09:35:55.449Z,1.10
2023-01-20T09:38:49.162Z,1.40
2023-01-20T09:42:09.128Z,1.30
2023-01-20T09:44:56.571Z,1.40
2023-01-20T09:47:37.392Z,1.60
2023-01-20T09:50:57.120Z,1.80
2023-01-20T09:54:01.658Z,2.00
2023-01-20T09:56:41.659Z,2.00
2023-01-20T09:59:27.924Z,2.00
2023-01-20T10:02:05.728Z,1.90
2023-01-20T10:08:05.454Z,1.50
2023-01-20T10:10:48.092Z,1.80
2023-01-20T10:14:02.157Z,1.80
2023-01-20T10:16:53.669Z,2.10
2023-01-20T10:19:37.523Z,2.00
2023-01-20T10:22:33.753Z,1.90
2023-01-20T10:25:28.794Z,1.90
2023-01-20T10:28:27.417Z,2.30
2023-01-20T10:31:04.845Z,2.20
2023-01-20T10:33:45.333Z,2.10
2023-01-20T10:36:28.144Z,2.50
2023-01-20T10:39:11.961Z,2.60
2023-01-20T10:41:51.264Z,3.00
2023-01-20T10:44:23.737Z,3.20
2023-01-20T10:47:26.190Z,3.50
2023-01-20T10:50:35.303Z,3.60
2023-01-20T10:53:36.215Z,3.60
2023-01-20T10:56:28.964Z,3.70
2023-01-20T10:59:17.126Z,3.80
2023-01-20T11:02:02.421Z,3.50
2023-01-20T11:04:43.492Z,3.60
2023-01-20T11:07:19.562Z,3.70
2023-01-20T11:12:29.171Z,4.50
2023-01-20T11:15:01.435Z,5.60
2023-01-20T11:20:07.001Z,7.00
2023-01-20T11:22:39.634Z,7.20
2023-01-20T11:25:26.436Z,6.70
2023-01-20T11:27:59.141Z,5.70
2023-01-20T11:30:34.453Z,3.30
2023-01-20T11:33:28.432Z,5.80
2023-01-20T11:36:19.195Z,6.40
2023-01-20T11:38:52.487Z,6.60
2023-01-20T11:41:31.572Z,6.90
2023-01-20T11:44:06.862Z,7.20
2023-01-20T11:49:22.784Z,7.50
2023-01-20T11:51:57.811Z,7.40
2023-01-20T11:54:30.691Z,7.50
2023-01-20T11:57:08.240Z,7.50
2023-01-20T11:59:49.402Z,7.60
2023-01-20T12:02:25.561Z,7.20
2023-01-20T12:05:10.317Z,5.90
2023-01-20T12:07:48.239Z,5.40
2023-01-20T12:10:29.594Z,5.70
2023-01-20T12:13:20.121Z,5.90
2023-01-20T12:15:56.659Z,5.40
2023-01-20T12:18:38.856Z,5.20
2023-01-20T12:21:18.459Z,4.90
2023-01-20T12:24:09.770Z,4.70
2023-01-20T12:26:42.564Z,4.40
2023-01-20T12:29:27.615Z,4.20
2023-01-20T12:34:34.395Z,4.50
2023-01-20T12:37:29.759Z,4.50
2023-01-20T12:40:22.360Z,5.00
2023-01-20T12:43:28.800Z,4.40
2023-01-20T12:46:32.720Z,3.90
2023-01-20T12:49:23.443Z,4.20
2023-01-20T12:52:18.276Z,4.10
2023-01-20T12:55:03.289Z,4.60
2023-01-20T12:57:52.431Z,4.80
2023-01-20T13:03:41.915Z,4.40
2023-01-20T13:07:16.974Z,4.40
2023-01-20T13:10:06.922Z,4.40
2023-01-20T13:13:12.657Z,5.10
2023-01-20T13:16:17.376Z,5.20
2023-01-20T13:19:08.814Z,5.50
2023-01-20T13:21:42.500Z,5.40
2023-01-20T13:24:24.634Z,4.80
2023-01-20T13:27:01.392Z,4.60
2023-01-20T13:29:36.918Z,4.70
2023-01-20T13:32:37.462Z,4.50
2023-01-20T13:35:18.416Z,4.00
2023-01-20T13:37:57.007Z,4.10
2023-01-20T13:40:37.965Z,3.80
2023-01-20T13:43:42.744Z,4.10
2023-01-20T13:49:14.183Z,3.90
2023-01-20T13:51:48.000Z,3.90
2023-01-20T13:54:23.964Z,3.90
2023-01-20T13:57:23.176Z,3.90
2023-01-20T13:59:56.705Z,3.90
2023-01-20T14:02:36.170Z,4.00
2023-01-20T14:05:24.587Z,3.70
2023-01-20T14:10:30.047Z,5.90
2023-01-20T14:15:40.896Z,3.70
2023-01-20T14:18:18.008Z,3.60
2023-01-20T14:21:23.402Z,3.70
2023-01-20T14:23:56.556Z,3.50
2023-01-20T14:26:30.888Z,3.50
2023-01-20T14:29:03.779Z,3.80
2023-01-20T14:31:44.060Z,3.90
2023-01-20T14:34:33.042Z,3.70
2023-01-20T14:37:25.857Z,3.80
2023-01-20T14:40:01.856Z,4.00
2023-01-20T14:42:36.477Z,4.90
2023-01-20T14:45:19.991Z,3.90
2023-01-20T14:47:54.273Z,3.70
2023-01-20T14:50:26.965Z,3.70
2023-01-20T14:52:59.282Z,3.60
2023-01-20T14:55:43.519Z,3.40
2023-01-20T14:58:17.392Z,3.50
2023-01-20T15:00:50.350Z,3.50
2023-01-20T15:03:28.759Z,3.50
2023-01-20T15:06:18.153Z,3.50
2023-01-20T15:09:05.596Z,3.50
2023-01-20T15:11:39.233Z,3.50
2023-01-20T15:14:13.016Z,3.40
2023-01-20T15:16:49.388Z,3.40
2023-01-20T15:19:33.441Z,3.50
2023-01-20T15:22:20.253Z,3.50
2023-01-20T15:24:53.788Z,3.50
2023-01-20T15:27:34.446Z,3.50
2023-01-20T15:30:27.213Z,3.50
2023-01-20T15:33:00.810Z,3.60
2023-01-20T15:35:33.443Z,3.50
2023-01-20T15:38:12.577Z,3.50
2023-01-20T15:40:44.469Z,3.50
2023-01-20T15:43:19.136Z,3.50
2023-01-20T15:45:51.068Z,3.50
2023-01-20T15:53:29.920Z,3.50
2023-01-20T15:56:02.307Z,3.40
2023-01-20T15:58:37.622Z,3.40
2023-01-20T16:01:13.774Z,3.40
2023-01-20T16:03:46.739Z,3.30
2023-01-20T16:06:20.289Z,3.20
2023-01-20T16:08:52.840Z,3.10
2023-01-20T16:16:35.950Z,3.20
2023-01-20T16:21:45.212Z,1.40
2023-01-20T16:24:18.087Z,3.10
2023-01-20T16:26:49.949Z,3.10
2023-01-20T16:31:54.917Z,3.00
2023-01-20T16:34:27.607Z,3.00
2023-01-20T16:36:59.506Z,3.10
2023-01-20T16:39:33.194Z,3.00
2023-01-20T16:42:05.533Z,3.00
2023-01-20T16:44:39.150Z,3.00
2023-01-20T16:47:11.016Z,3.00
2023-01-20T16:49:43.718Z,3.00
2023-01-20T16:52:15.588Z,3.00
2023-01-20T16:54:48.140Z,2.70
2023-01-20T16:57:19.980Z,2.70
2023-01-20T16:59:52.513Z,2.70
2023-01-20T17:02:24.463Z,2.50
2023-01-20T17:07:29.399Z,2.50
2023-01-20T17:10:02.244Z,2.40
2023-01-20T17:12:34.242Z,2.10
2023-01-20T17:15:07.635Z,2.20
2023-01-20T17:17:39.997Z,2.00
2023-01-20T17:20:12.053Z,2.10
2023-01-20T17:22:45.217Z,2.00
2023-01-20T17:27:50.295Z,2.10
2023-01-20T17:30:23.973Z,2.00
2023-01-20T17:32:58.607Z,2.00
2023-01-20T17:35:30.451Z,1.90
2023-01-20T17:38:02.967Z,1.80
2023-01-20T17:40:34.851Z,1.70
2023-01-20T17:43:07.401Z,1.50
2023-01-20T17:45:39.351Z,1.50
2023-01-20T17:50:44.305Z,1.30
2023-01-20T17:53:16.897Z,1.20
2023-01-20T17:58:25.926Z,1.30
2023-01-20T18:00:58.206Z,1.20
2023-01-20T18:03:30.564Z,1.30
2023-01-20T18:06:02.483Z,1.20
2023-01-20T18:08:35.553Z,1.10
2023-01-20T18:11:11.549Z,1.10
2023-01-20T18:13:46.928Z,1.00
2023-01-20T18:16:21.055Z,1.00
2023-01-20T18:21:41.689Z,0.90
2023-01-20T18:24:15.040Z,0.90
2023-01-20T18:26:47.266Z,0.80
2023-01-20T18:29:19.195Z,0.80
2023-01-20T18:31:51.877Z,0.70
2023-01-20T18:34:24.174Z,0.60
2023-01-20T18:36:56.798Z,0.50
2023-01-20T18:39:29.493Z,0.70
2023-01-20T18:42:01.844Z,0.70
2023-01-20T18:44:33.689Z,0.70
2023-01-20T18:47:06.169Z,0.60
2023-01-20T18:49:38.252Z,0.60
2023-01-20T18:52:11.978Z,0.60
2023-01-20T18:54:43.854Z,0.60
2023-01-20T18:57:16.601Z,0.60
2023-01-20T19:02:21.676Z,0.50
2023-01-20T19:07:26.780Z,0.40
2023-01-20T19:09:59.133Z,0.50
2023-01-20T19:12:31.424Z,0.40
2023-01-20T19:15:04.429Z,0.40
2023-01-20T19:17:36.546Z,0.40
2023-01-20T19:20:11.279Z,0.30
2023-01-20T19:22:43.243Z,0.30
2023-01-20T19:25:16.347Z,0.30
2023-01-20T19:27:48.281Z,0.40
2023-01-20T19:30:21.339Z,0.30
2023-01-20T19:32:53.235Z,0.20
2023-01-20T19:35:25.952Z,0.10
2023-01-20T19:37:58.249Z,0.10
2023-01-20T19:40:30.135Z,0.20
2023-01-20T19:45:45.703Z,0.30
2023-01-20T19:48:18.194Z,0.20
2023-01-20T19:50:50.906Z,0.20
2023-01-20T19:53:23.280Z,0.20
2023-01-20T19:56:05.791Z,0.10
2023-01-20T19:58:39.448Z,0.10
2023-01-20T20:01:21.273Z,0.10
2023-01-20T20:03:57.332Z,0.20
2023-01-20T20:09:17.572Z,0.10
2023-01-20T20:11:50.151Z,0.10
2023-01-20T20:14:23.502Z,0.10
2023-01-20T20:16:56.004Z,0.00
2023-01-20T20:22:00.397Z,0.10
2023-01-20T20:24:33.331Z,0.10
2023-01-20T20:27:05.349Z,0.10
2023-01-20T20:32:10.596Z,0.60
2023-01-20T20:34:43.282Z,0.50
2023-01-20T20:37:15.128Z,0.30
2023-01-20T20:39:46.990Z,0.10
2023-01-20T20:42:19.251Z,0.20
2023-01-20T20:44:52.001Z,0.10
2023-01-20T20:47:27.336Z,0.10
2023-01-20T20:49:59.229Z,0.20
2023-01-20T20:52:31.496Z,0.10
2023-01-20T20:55:03.902Z,0.00
2023-01-20T20:57:35.828Z,0.10
2023-01-20T21:00:09.550Z,0.00
2023-01-20T21:02:43.439Z,0.00
2023-01-20T21:10:23.062Z,-0.20
2023-01-20T21:12:55.538Z,-0.10
2023-01-20T21:18:01.571Z,-0.20
2023-01-20T21:20:33.864Z,-0.30
2023-01-20T21:23:06.832Z,-0.30
2023-01-20T21:25:38.677Z,-0.30
2023-01-20T21:28:13.737Z,-0.20
2023-01-20T21:30:46.080Z,0.00
2023-01-20T21:33:42.402Z,0.00
2023-01-20T21:36:15.002Z,0.00
2023-01-20T21:38:47.296Z,-0.10
2023-01-20T21:41:20.171Z,-0.10
2023-01-20T21:44:11.015Z,0.00
2023-01-20T21:46:42.955Z,-0.10
2023-01-20T21:49:34.161Z,0.10
2023-01-20T21:52:24.743Z,0.00
2023-01-20T21:54:57.098Z,-0.20
2023-01-20T21:57:29.386Z,-0.10
2023-01-20T22:00:04.728Z,0.00
2023-01-20T22:02:47.449Z,0.00
2023-01-20T22:05:20.535Z,-0.10
2023-01-20T22:07:52.441Z,-0.10
2023-01-20T22:10:25.114Z,0.00
2023-01-20T22:15:30.476Z,-0.10
2023-01-20T22:18:02.770Z,-0.10
2023-01-20T22:20:34.883Z,-0.30
2023-01-20T22:25:40.031Z,-0.30
2023-01-20T22:28:12.739Z,-0.30
2023-01-20T22:30:47.683Z,-0.40
2023-01-20T22:35:54.876Z,-0.30
2023-01-20T22:38:27.331Z,-0.30
2023-01-20T22:41:09.460Z,-0.40
2023-01-20T22:43:43.968Z,-0.30
2023-01-20T22:46:19.594Z,-0.30
2023-01-20T22:51:29.658Z,-0.40
2023-01-20T22:54:02.048Z,-0.30
2023-01-20T22:56:34.910Z,-0.50
2023-01-20T22:59:07.108Z,-0.60
2023-01-20T23:01:39.899Z,-0.70
2023-01-20T23:04:12.182Z,-0.70
2023-01-20T23:09:16.814Z,-0.70
2023-01-20T23:11:49.881Z,-0.70
2023-01-20T23:14:42.065Z,-0.80
2023-01-20T23:17:14.797Z,-0.80
2023-01-20T23:19:47.106Z,-0.90
2023-01-20T23:22:20.255Z,-0.80
2023-01-20T23:24:52.147Z,-0.80
2023-01-20T23:27:24.856Z,-0.80
2023-01-20T23:29:56.859Z,-0.80
2023-01-20T23:32:29.540Z,-0.80
2023-01-20T23:35:01.867Z,-0.80
2023-01-20T23:37:34.140Z,-0.80
2023-01-20T23:40:06.649Z,-0.80
2023-01-20T23:42:39.045Z,-0.90
2023-01-20T23:45:12.449Z,-0.90
2023-01-20T23:47:44.407Z,-0.90
2023-01-20T23:50:17.859Z,0.40
2023-01-20T23:52:49.911Z,-1.00
2023-01-20T23:55:22.692Z,-1.00
